createdAt,value
2023-03-16T00:04:31.989Z,23.8
2023-03-16T00:10:25.933Z,23.3
2023-03-16T00:16:04.049Z,23.2
2023-03-16T00:21:27.099Z,22.8
2023-03-16T00:27:19.973Z,23.4
2023-03-16T00:32:42.939Z,24.9
2023-03-16T00:38:36.118Z,25.8
2023-03-16T00:44:28.806Z,25.8
2023-03-16T00:50:06.696Z,24.3
2023-03-16T00:55:45.173Z,23.9
2023-03-16T01:01:38.469Z,23.4
2023-03-16T01:07:15.334Z,23.1
2023-03-16T01:12:37.287Z,22.8
2023-03-16T01:18:14.378Z,23.4
2023-03-16T01:23:20.217Z,24.6
2023-03-16T01:29:12.644Z,25.6
2023-03-16T01:34:51.379Z,25.8
2023-03-16T01:40:43.965Z,24.3
2023-03-16T01:46:36.716Z,24
2023-03-16T01:51:44.901Z,23.4
2023-03-16T01:57:37.657Z,23.1
2023-03-16T02:03:00.200Z,22.9
2023-03-16T02:08:23.325Z,23.2
2023-03-16T02:14:17.087Z,23.8
2023-03-16T02:19:55.295Z,24.3
2023-03-16T02:25:48.427Z,24
2023-03-16T02:31:41.694Z,23.6
2023-03-16T02:37:35.403Z,25.4
2023-03-16T02:43:13.256Z,25.7
2023-03-16T02:48:51.499Z,24.5
2023-03-16T02:54:44.418Z,24.1
2023-03-16T03:00:22.524Z,23.4
2023-03-16T03:05:31.300Z,23.2
2023-03-16T03:11:23.224Z,22.9
2023-03-16T03:17:16.056Z,23
2023-03-16T03:23:08.327Z,23.7
2023-03-16T03:28:46.152Z,25.4
2023-03-16T03:34:38.606Z,25.7
2023-03-16T03:40:01.178Z,24.5
2023-03-16T03:45:38.688Z,24
2023-03-16T03:51:01.202Z,23.4
2023-03-16T03:56:07.406Z,23.1
2023-03-16T04:02:03.664Z,22.9
2023-03-16T04:07:57.292Z,22.7
2023-03-16T04:13:34.720Z,23.3
2023-03-16T04:19:27.876Z,25
2023-03-16T04:24:50.065Z,25.6
2023-03-16T04:30:12.567Z,25.3
2023-03-16T04:35:49.961Z,24.1
2023-03-16T04:41:28.208Z,23.7
2023-03-16T04:47:06.096Z,23.2
2023-03-16T04:52:43.882Z,23
2023-03-16T04:58:37.163Z,22.7
2023-03-16T05:04:36.030Z,23.2
2023-03-16T05:10:28.988Z,24.8
2023-03-16T05:15:34.999Z,25.6
2023-03-16T05:21:28.126Z,25.6
2023-03-16T05:27:21.247Z,24.2
2023-03-16T05:32:44.642Z,23.8
2023-03-16T05:38:25.363Z,23.3
2023-03-16T05:44:17.757Z,23
2023-03-16T05:49:56.595Z,22.8
2023-03-16T05:55:35.133Z,23.2
2023-03-16T06:01:28.517Z,24.1
2023-03-16T06:07:22.691Z,25
2023-03-16T06:13:16.291Z,23.8
2023-03-16T06:19:08.570Z,24.1
2023-03-16T06:25:00.318Z,24.1
2023-03-16T06:30:55.478Z,25.6
2023-03-16T06:36:51.231Z,25.7
2023-03-16T06:42:46.639Z,24.3
2023-03-16T06:48:24.723Z,24
2023-03-16T06:54:03.980Z,23.3
2023-03-16T06:59:56.293Z,23.1
2023-03-16T07:05:49.484Z,22.8
2023-03-16T07:11:42.535Z,23.1
2023-03-16T07:17:39.433Z,24.5
2023-03-16T07:23:33.376Z,25.6
2023-03-16T07:29:30.624Z,25.6
2023-03-16T07:35:41.274Z,24.1
2023-03-16T07:41:19.530Z,23.6
2023-03-16T07:46:56.450Z,23.1
2023-03-16T07:52:34.426Z,22.9
2023-03-16T07:58:43.930Z,22.6
2023-03-16T08:04:38.311Z,23.1
2023-03-16T08:10:31.562Z,24.9
2023-03-16T08:16:12.471Z,25.6
2023-03-16T08:22:17.608Z,25.5
2023-03-16T08:28:10.250Z,23.9
2023-03-16T08:33:49.535Z,23.5
2023-03-16T08:39:39.492Z,23.1
2023-03-16T08:45:17.347Z,23.3
2023-03-16T08:50:55.028Z,23.9
2023-03-16T08:56:59.014Z,25.4
2023-03-16T09:03:05.112Z,25.6
2023-03-16T09:09:06.046Z,24.2
2023-03-16T09:14:44.366Z,23.9
2023-03-16T09:20:54.861Z,23.2
2023-03-16T09:26:33.272Z,22.9
2023-03-16T09:32:29.723Z,23.5
2023-03-16T09:38:23.283Z,25.3
2023-03-16T09:44:05.381Z,25.7
2023-03-16T09:49:42.608Z,24.5
2023-03-16T09:54:58.217Z,23.9
2023-03-16T10:00:35.286Z,23.4
2023-03-16T10:06:29.144Z,23
2023-03-16T10:12:20.538Z,23.2
2023-03-16T10:18:14.125Z,24.7
2023-03-16T10:24:06.357Z,25.7
2023-03-16T10:29:43.352Z,25.6
2023-03-16T10:35:23.836Z,24.1
2023-03-16T10:41:17.444Z,23.8
2023-03-16T10:47:12.201Z,23.1
2023-03-16T10:53:05.451Z,22.9
2023-03-16T10:58:58.558Z,23.7
2023-03-16T11:04:52.007Z,25.4
2023-03-16T11:10:54.901Z,25.7
2023-03-16T11:17:03.774Z,24.4
2023-03-16T11:22:56.507Z,23.9
2023-03-16T11:28:48.831Z,23.3
2023-03-16T11:34:44.486Z,22.9
2023-03-16T11:40:38.718Z,23.4
2023-03-16T11:46:30.682Z,25.3
2023-03-16T11:52:23.853Z,25.6
2023-03-16T11:58:00.406Z,24.6
2023-03-16T12:04:14.160Z,23.9
2023-03-16T12:10:01.122Z,23.3
2023-03-16T12:15:54.186Z,22.9
2023-03-16T12:22:03.727Z,23.3
2023-03-16T12:27:56.893Z,24.9
2023-03-16T12:33:34.306Z,25.6
2023-03-16T12:39:26.786Z,25.3
2023-03-16T12:45:19.546Z,23.9
2023-03-16T12:50:56.996Z,23.4
2023-03-16T12:56:37.333Z,23
2023-03-16T13:01:59.232Z,23.3
2023-03-16T13:07:42.409Z,23.9
2023-03-16T13:13:20.912Z,25.5
2023-03-16T13:19:02.488Z,25.6
2023-03-16T13:25:10.932Z,24.3
2023-03-16T13:30:33.565Z,23.9
2023-03-16T13:35:40.524Z,23.3
2023-03-16T13:41:18.425Z,23
2023-03-16T13:46:59.740Z,22.8
2023-03-16T13:52:35.960Z,22.6
2023-03-16T13:58:13.728Z,22.3
2023-03-16T14:03:51.912Z,22.1
2023-03-16T14:09:29.188Z,21.9
2023-03-16T14:15:26.993Z,21.8
2023-03-16T14:21:29.976Z,21.6
2023-03-16T14:27:25.142Z,21.9
2023-03-16T14:33:18.675Z,24.3
2023-03-16T14:38:57.032Z,26.4
2023-03-16T14:44:50.802Z,27.1
2023-03-16T14:56:21.923Z,28.4
2023-03-16T15:02:32.270Z,28.7
2023-03-16T15:08:27.774Z,28.6
2023-03-16T15:14:20.909Z,29.2
2023-03-16T15:19:58.279Z,29.4
2023-03-16T15:25:34.848Z,29.9
2023-03-16T15:31:28.306Z,30.3
2023-03-16T15:37:06.017Z,30.5
2023-03-16T15:43:10.654Z,30.6
2023-03-16T15:49:03.637Z,30.6
2023-03-16T15:55:10.799Z,30.6
2023-03-16T16:01:18.559Z,30.3
2023-03-16T16:06:55.645Z,30.4
2023-03-16T16:12:16.932Z,30.7
2023-03-16T16:18:37.972Z,31.1
2023-03-16T16:24:15.220Z,31.3
2023-03-16T16:29:52.158Z,31.1
2023-03-16T16:35:11.375Z,30.9
2023-03-16T16:40:34.406Z,30.9
2023-03-16T16:45:10.931Z,30.6
2023-03-16T16:50:33.723Z,30.4
2023-03-16T16:55:58.452Z,30.1
2023-03-16T17:01:44.394Z,30.3
2023-03-16T17:06:53.976Z,30.9
2023-03-16T17:12:16.536Z,31.1
2023-03-16T17:17:40.182Z,31
2023-03-16T17:23:33.290Z,31.1
2023-03-16T17:28:56.013Z,30.8
2023-03-16T17:34:34.265Z,30.8
2023-03-16T17:40:16.301Z,31
2023-03-16T17:45:56.517Z,31.2
2023-03-16T17:51:49.390Z,31.1
2023-03-16T17:57:42.279Z,31.1
2023-03-16T18:03:04.639Z,31
2023-03-16T18:09:00.431Z,30.7
2023-03-16T18:14:38.834Z,31.4
2023-03-16T18:19:46.084Z,31.6
2023-03-16T18:25:39.751Z,31.6
2023-03-16T18:31:34.800Z,31.6
2023-03-16T18:37:28.190Z,31.4
2023-03-16T18:43:05.775Z,31.8
2023-03-16T18:48:43.764Z,31.6
2023-03-16T18:54:36.935Z,31.6
2023-03-16T18:59:58.925Z,31.6
2023-03-16T19:05:05.551Z,31.6
2023-03-16T19:10:30.602Z,31.4
2023-03-16T19:16:08.795Z,31.7
2023-03-16T19:21:45.951Z,31.7
2023-03-16T19:27:24.090Z,31.8
2023-03-16T19:33:01.939Z,31.6
2023-03-16T19:38:53.291Z,31.3
2023-03-16T19:44:31.355Z,31
2023-03-16T19:50:24.533Z,31.1
2023-03-16T19:56:17.685Z,31.4
2023-03-16T20:02:10.466Z,31.8
2023-03-16T20:08:04.214Z,32.2
2023-03-16T20:13:42.000Z,32.3
2023-03-16T20:19:05.318Z,32.1
2023-03-16T20:24:26.860Z,32.1
2023-03-16T20:30:19.959Z,31.8
2023-03-16T20:36:13.073Z,31.5
2023-03-16T20:41:51.967Z,31.6
2023-03-16T20:47:30.187Z,31.2
2023-03-16T20:52:50.900Z,30.8
2023-03-16T20:58:28.600Z,30.5
2023-03-16T21:04:22.097Z,30.1
2023-03-16T21:10:23.627Z,29.7
2023-03-16T21:15:47.337Z,29.3
2023-03-16T21:21:39.935Z,29
2023-03-16T21:27:33.364Z,28.8
2023-03-16T21:33:26.931Z,28.5
2023-03-16T21:39:19.543Z,28.3
2023-03-16T21:45:14.346Z,28.1
2023-03-16T21:51:08.405Z,27.9
2023-03-16T21:56:47.542Z,27.7
2023-03-16T22:02:20.709Z,27.4
2023-03-16T22:08:31.670Z,26.8
2023-03-16T22:14:09.395Z,26.3
2023-03-16T22:20:02.161Z,25.8
2023-03-16T22:25:41.143Z,25.6
2023-03-16T22:31:18.092Z,25.1
2023-03-16T22:37:10.602Z,25.3
2023-03-16T22:43:03.092Z,24.6
2023-03-16T22:48:40.062Z,24.8
2023-03-16T22:54:33.282Z,24.4
2023-03-16T23:00:26.899Z,25.9
2023-03-16T23:06:21.104Z,27.3
2023-03-16T23:12:00.255Z,27.1
2023-03-16T23:17:53.657Z,26
2023-03-16T23:24:07.479Z,25.5
2023-03-16T23:29:44.878Z,24.9
2023-03-16T23:35:23.183Z,24.9
2023-03-16T23:41:00.918Z,24.4
2023-03-16T23:46:37.759Z,24.4
2023-03-16T23:52:16.260Z,23.9
2023-03-16T23:57:52.535Z,25.1
